Atlantic Beach, Florida
Current Conditions -  °F | °C
As of 4:52 PM on Saturday 20 Dec 2014 (Local Time) from KNRB Reporting Station
Overcast Overcast  
Wind Chill: 15°   Ceiling: 600
Heat Index: 15°   Visibility: 10mi
Dew Point: 14°   Wind: 14mph
Humidity: 93%   Direction: 20°NNE
Pressure: 30.1"   Gusts: NA
Location:  30.33°N, 81.4°W
Report Text: KNRB 202152Z AUTO 02012KT 10SM OVC006 15/14 A3010 RMK AO2 SLP193 T01500139 $
Loading
Personal Weather Stations






























Interactive Weather Map New forecast layout! Learn more

10-Day Weather Forecast

Advertisements
Track Severe Weather on mobile